sensor_id;sensor_type;location;lat;lon;timestamp;pressure;altitude;pressure_sealevel;temperature;humidity
47809;BME280;33573;38.790;-77.084;2023-08-20T00:01:39;101431.46;;;25.56;32.12
47809;BME280;33573;38.790;-77.084;2023-08-20T00:04:04;101434.70;;;25.26;32.96
47809;BME280;33573;38.790;-77.084;2023-08-20T00:06:29;101431.86;;;25.64;32.75
47809;BME280;33573;38.790;-77.084;2023-08-20T00:08:54;101432.60;;;25.55;31.93
47809;BME280;33573;38.790;-77.084;2023-08-20T00:11:19;101435.72;;;25.92;31.21
47809;BME280;33573;38.790;-77.084;2023-08-20T00:13:44;101436.11;;;25.60;31.37
47809;BME280;33573;38.790;-77.084;2023-08-20T00:16:10;101433.86;;;25.76;31.19
47809;BME280;33573;38.790;-77.084;2023-08-20T00:18:36;101441.77;;;26.18;30.67
47809;BME280;33573;38.790;-77.084;2023-08-20T00:21:01;101447.27;;;26.34;30.62
47809;BME280;33573;38.790;-77.084;2023-08-20T00:23:27;101445.95;;;26.06;32.14
47809;BME280;33573;38.790;-77.084;2023-08-20T00:25:52;101450.16;;;25.98;31.78
47809;BME280;33573;38.790;-77.084;2023-08-20T00:28:18;101457.04;;;25.57;31.81
47809;BME280;33573;38.790;-77.084;2023-08-20T00:30:42;101465.35;;;26.10;32.98
47809;BME280;33573;38.790;-77.084;2023-08-20T00:33:08;101471.77;;;25.76;33.77
47809;BME280;33573;38.790;-77.084;2023-08-20T00:35:33;101474.42;;;25.69;33.62
47809;BME280;33573;38.790;-77.084;2023-08-20T00:37:58;101476.75;;;25.96;34.00
47809;BME280;33573;38.790;-77.084;2023-08-20T00:40:23;101481.71;;;25.35;33.68
47809;BME280;33573;38.790;-77.084;2023-08-20T00:42:49;101494.53;;;25.43;35.04
47809;BME280;33573;38.790;-77.084;2023-08-20T00:45:15;101498.43;;;25.10;35.56
47809;BME280;33573;38.790;-77.084;2023-08-20T00:47:41;101501.06;;;24.86;36.39
47809;BME280;33573;38.790;-77.084;2023-08-20T00:50:07;101506.04;;;24.90;36.56
47809;BME280;33573;38.790;-77.084;2023-08-20T00:52:32;101509.49;;;24.61;37.33
47809;BME280;33573;38.790;-77.084;2023-08-20T00:54:58;101514.30;;;24.79;37.20
47809;BME280;33573;38.790;-77.084;2023-08-20T00:57:23;101517.42;;;24.43;37.31
47809;BME280;33573;38.790;-77.084;2023-08-20T00:59:48;101518.32;;;24.70;37.49
47809;BME280;33573;38.790;-77.084;2023-08-20T01:02:13;101523.46;;;24.43;37.68
47809;BME280;33573;38.790;-77.084;2023-08-20T01:04:39;101522.75;;;24.16;38.12
47809;BME280;33573;38.790;-77.084;2023-08-20T01:07:12;101522.70;;;23.98;38.69
47809;BME280;33573;38.790;-77.084;2023-08-20T01:09:37;101524.22;;;23.92;39.03
47809;BME280;33573;38.790;-77.084;2023-08-20T01:11:59;101525.20;;;23.92;38.92
47809;BME280;33573;38.790;-77.084;2023-08-20T01:14:21;101527.34;;;23.67;39.34
47809;BME280;33573;38.790;-77.084;2023-08-20T01:16:46;101525.52;;;23.67;39.31
47809;BME280;33573;38.790;-77.084;2023-08-20T01:19:17;101527.49;;;23.47;39.74
47809;BME280;33573;38.790;-77.084;2023-08-20T01:21:39;101531.53;;;23.58;39.92
47809;BME280;33573;38.790;-77.084;2023-08-20T01:24:15;101530.86;;;23.57;40.37
47809;BME280;33573;38.790;-77.084;2023-08-20T01:26:48;101533.72;;;23.84;39.47
47809;BME280;33573;38.790;-77.084;2023-08-20T01:28:54;101532.35;;;23.73;39.23
47809;BME280;33573;38.790;-77.084;2023-08-20T01:31:20;101530.02;;;23.71;39.12
47809;BME280;33573;38.790;-77.084;2023-08-20T01:33:45;101529.40;;;23.59;40.07
47809;BME280;33573;38.790;-77.084;2023-08-20T01:36:10;101534.61;;;23.13;40.38
47809;BME280;33573;38.790;-77.084;2023-08-20T01:38:36;101538.57;;;23.45;40.60
47809;BME280;33573;38.790;-77.084;2023-08-20T01:41:02;101543.77;;;23.33;40.65
47809;BME280;33573;38.790;-77.084;2023-08-20T01:43:27;101550.98;;;23.44;40.81
47809;BME280;33573;38.790;-77.084;2023-08-20T01:45:52;101553.57;;;23.68;40.24
47809;BME280;33573;38.790;-77.084;2023-08-20T01:48:17;101553.47;;;23.82;40.14
47809;BME280;33573;38.790;-77.084;2023-08-20T01:50:43;101554.97;;;23.83;40.69
47809;BME280;33573;38.790;-77.084;2023-08-20T01:53:08;101555.52;;;23.91;40.48
47809;BME280;33573;38.790;-77.084;2023-08-20T01:55:33;101558.89;;;23.45;40.79
47809;BME280;33573;38.790;-77.084;2023-08-20T01:57:58;101560.12;;;23.59;41.35
47809;BME280;33573;38.790;-77.084;2023-08-20T02:00:24;101562.09;;;23.40;40.69
47809;BME280;33573;38.790;-77.084;2023-08-20T02:02:49;101566.61;;;23.48;40.80
47809;BME280;33573;38.790;-77.084;2023-08-20T02:05:15;101565.04;;;23.50;40.45
47809;BME280;33573;38.790;-77.084;2023-08-20T02:07:40;101566.45;;;23.42;40.93
47809;BME280;33573;38.790;-77.084;2023-08-20T02:10:07;101562.42;;;23.13;41.29
47809;BME280;33573;38.790;-77.084;2023-08-20T02:12:31;101560.58;;;23.26;40.74
47809;BME280;33573;38.790;-77.084;2023-08-20T02:14:56;101565.98;;;23.43;41.11
47809;BME280;33573;38.790;-77.084;2023-08-20T02:17:22;101563.68;;;22.91;41.98
47809;BME280;33573;38.790;-77.084;2023-08-20T02:19:47;101567.83;;;23.22;42.24
47809;BME280;33573;38.790;-77.084;2023-08-20T02:22:13;101571.31;;;23.10;41.91
47809;BME280;33573;38.790;-77.084;2023-08-20T02:24:38;101570.37;;;23.02;41.54
47809;BME280;33573;38.790;-77.084;2023-08-20T02:27:04;101573.31;;;22.94;42.54
47809;BME280;33573;38.790;-77.084;2023-08-20T02:29:29;101573.53;;;22.91;42.51
47809;BME280;33573;38.790;-77.084;2023-08-20T02:31:55;101574.43;;;22.88;42.42
47809;BME280;33573;38.790;-77.084;2023-08-20T02:34:20;101578.80;;;22.67;43.04
47809;BME280;33573;38.790;-77.084;2023-08-20T02:36:45;101579.89;;;22.70;42.58
47809;BME280;33573;38.790;-77.084;2023-08-20T02:39:11;101581.73;;;22.83;42.38
47809;BME280;33573;38.790;-77.084;2023-08-20T02:41:36;101579.84;;;22.89;42.14
47809;BME280;33573;38.790;-77.084;2023-08-20T02:44:02;101582.17;;;22.63;42.97
47809;BME280;33573;38.790;-77.084;2023-08-20T02:46:27;101581.66;;;22.67;43.04
47809;BME280;33573;38.790;-77.084;2023-08-20T02:48:52;101585.87;;;22.71;43.35
47809;BME280;33573;38.790;-77.084;2023-08-20T02:51:18;101583.67;;;22.47;43.37
47809;BME280;33573;38.790;-77.084;2023-08-20T02:53:43;101583.72;;;22.65;43.60
47809;BME280;33573;38.790;-77.084;2023-08-20T02:56:09;101584.86;;;22.81;43.45
47809;BME280;33573;38.790;-77.084;2023-08-20T02:58:34;101590.37;;;22.51;43.88
47809;BME280;33573;38.790;-77.084;2023-08-20T03:01:00;101595.77;;;22.45;43.87
47809;BME280;33573;38.790;-77.084;2023-08-20T03:03:25;101597.24;;;21.97;44.07
47809;BME280;33573;38.790;-77.084;2023-08-20T03:05:50;101600.82;;;22.16;44.27
47809;BME280;33573;38.790;-77.084;2023-08-20T03:08:15;101606.52;;;22.13;44.66
47809;BME280;33573;38.790;-77.084;2023-08-20T03:10:41;101607.53;;;22.24;44.83
47809;BME280;33573;38.790;-77.084;2023-08-20T03:13:06;101610.85;;;22.17;44.66
47809;BME280;33573;38.790;-77.084;2023-08-20T03:15:31;101611.44;;;22.03;44.62
47809;BME280;33573;38.790;-77.084;2023-08-20T03:17:57;101611.54;;;21.92;44.72
47809;BME280;33573;38.790;-77.084;2023-08-20T03:20:23;101609.25;;;21.89;45.22
47809;BME280;33573;38.790;-77.084;2023-08-20T03:22:48;101610.21;;;21.85;45.19
47809;BME280;33573;38.790;-77.084;2023-08-20T03:25:14;101605.79;;;22.06;44.93
47809;BME280;33573;38.790;-77.084;2023-08-20T03:27:41;101606.60;;;21.79;45.55
47809;BME280;33573;38.790;-77.084;2023-08-20T03:30:06;101608.47;;;21.93;45.53
47809;BME280;33573;38.790;-77.084;2023-08-20T03:32:30;101611.98;;;21.91;45.48
47809;BME280;33573;38.790;-77.084;2023-08-20T03:34:56;101616.11;;;21.56;45.88
47809;BME280;33573;38.790;-77.084;2023-08-20T03:37:22;101613.75;;;21.76;45.48
47809;BME280;33573;38.790;-77.084;2023-08-20T03:39:47;101613.31;;;21.89;45.83
47809;BME280;33573;38.790;-77.084;2023-08-20T03:42:13;101613.26;;;21.61;46.27
47809;BME280;33573;38.790;-77.084;2023-08-20T03:44:39;101614.36;;;21.50;46.46
47809;BME280;33573;38.790;-77.084;2023-08-20T03:47:04;101618.91;;;21.73;45.98
47809;BME280;33573;38.790;-77.084;2023-08-20T03:49:29;101614.13;;;21.54;46.44
47809;BME280;33573;38.790;-77.084;2023-08-20T03:51:55;101612.16;;;21.65;46.47
47809;BME280;33573;38.790;-77.084;2023-08-20T03:54:20;101613.06;;;21.94;46.47
47809;BME280;33573;38.790;-77.084;2023-08-20T03:56:46;101612.48;;;21.61;46.48
47809;BME280;33573;38.790;-77.084;2023-08-20T03:59:11;101613.78;;;21.60;46.36
47809;BME280;33573;38.790;-77.084;2023-08-20T04:01:37;101612.60;;;21.50;46.32
47809;BME280;33573;38.790;-77.084;2023-08-20T04:04:03;101614.08;;;21.49;46.31
47809;BME280;33573;38.790;-77.084;2023-08-20T04:06:28;101621.63;;;20.73;47.18
47809;BME280;33573;38.790;-77.084;2023-08-20T04:08:53;101621.26;;;21.40;46.72
47809;BME280;33573;38.790;-77.084;2023-08-20T04:11:18;101625.23;;;21.21;47.00
47809;BME280;33573;38.790;-77.084;2023-08-20T04:13:44;101626.79;;;21.51;47.09
47809;BME280;33573;38.790;-77.084;2023-08-20T04:16:10;101628.85;;;21.26;47.26
47809;BME280;33573;38.790;-77.084;2023-08-20T04:18:35;101630.09;;;21.33;47.44
47809;BME280;33573;38.790;-77.084;2023-08-20T04:21:00;101626.11;;;21.32;46.58
47809;BME280;33573;38.790;-77.084;2023-08-20T04:23:26;101632.33;;;21.23;46.58
47809;BME280;33573;38.790;-77.084;2023-08-20T04:25:51;101633.65;;;20.98;47.74
47809;BME280;33573;38.790;-77.084;2023-08-20T04:28:17;101631.55;;;21.03;46.98
47809;BME280;33573;38.790;-77.084;2023-08-20T04:30:43;101631.66;;;20.95;47.20
47809;BME280;33573;38.790;-77.084;2023-08-20T04:33:08;101633.19;;;21.11;47.73
47809;BME280;33573;38.790;-77.084;2023-08-20T04:35:33;101635.24;;;20.86;47.93
47809;BME280;33573;38.790;-77.084;2023-08-20T04:37:59;101634.19;;;20.70;48.49
47809;BME280;33573;38.790;-77.084;2023-08-20T04:40:25;101635.74;;;20.87;48.48
47809;BME280;33573;38.790;-77.084;2023-08-20T04:42:51;101639.02;;;20.58;48.33
47809;BME280;33573;38.790;-77.084;2023-08-20T04:45:16;101644.53;;;20.99;48.48
47809;BME280;33573;38.790;-77.084;2023-08-20T04:47:41;101642.78;;;20.89;48.26
47809;BME280;33573;38.790;-77.084;2023-08-20T04:50:07;101637.43;;;20.58;47.47
47809;BME280;33573;38.790;-77.084;2023-08-20T04:52:32;101636.59;;;20.74;48.17
47809;BME280;33573;38.790;-77.084;2023-08-20T04:54:58;101638.46;;;20.94;48.26
47809;BME280;33573;38.790;-77.084;2023-08-20T04:57:23;101636.16;;;20.88;48.53
47809;BME280;33573;38.790;-77.084;2023-08-20T04:59:48;101628.83;;;20.88;48.15
47809;BME280;33573;38.790;-77.084;2023-08-20T05:02:14;101631.11;;;20.48;48.88
47809;BME280;33573;38.790;-77.084;2023-08-20T05:04:39;101637.57;;;20.64;48.25
47809;BME280;33573;38.790;-77.084;2023-08-20T05:07:05;101640.90;;;20.50;49.30
47809;BME280;33573;38.790;-77.084;2023-08-20T05:09:30;101638.99;;;20.65;49.21
47809;BME280;33573;38.790;-77.084;2023-08-20T05:11:56;101633.08;;;20.59;48.98
47809;BME280;33573;38.790;-77.084;2023-08-20T05:14:21;101642.54;;;20.45;48.61
47809;BME280;33573;38.790;-77.084;2023-08-20T05:16:46;101642.81;;;20.76;48.56
47809;BME280;33573;38.790;-77.084;2023-08-20T05:19:12;101639.09;;;20.65;49.14
47809;BME280;33573;38.790;-77.084;2023-08-20T05:21:37;101637.00;;;20.41;49.50
47809;BME280;33573;38.790;-77.084;2023-08-20T05:24:03;101636.80;;;20.51;49.21
47809;BME280;33573;38.790;-77.084;2023-08-20T05:26:28;101634.81;;;20.43;48.86
47809;BME280;33573;38.790;-77.084;2023-08-20T05:28:54;101630.20;;;20.59;49.44
47809;BME280;33573;38.790;-77.084;2023-08-20T05:31:19;101629.68;;;20.62;49.65
47809;BME280;33573;38.790;-77.084;2023-08-20T05:33:45;101628.85;;;20.56;49.53
47809;BME280;33573;38.790;-77.084;2023-08-20T05:36:10;101633.17;;;20.48;49.18
47809;BME280;33573;38.790;-77.084;2023-08-20T05:38:36;101633.45;;;20.48;49.51
47809;BME280;33573;38.790;-77.084;2023-08-20T05:41:02;101628.23;;;20.50;49.48
47809;BME280;33573;38.790;-77.084;2023-08-20T05:43:27;101629.15;;;20.45;49.48
47809;BME280;33573;38.790;-77.084;2023-08-20T05:45:53;101627.57;;;19.87;50.29
47809;BME280;33573;38.790;-77.084;2023-08-20T05:48:18;101626.98;;;20.18;49.99
47809;BME280;33573;38.790;-77.084;2023-08-20T05:50:43;101631.49;;;20.05;50.40
47809;BME280;33573;38.790;-77.084;2023-08-20T05:53:08;101634.72;;;20.06;50.09
47809;BME280;33573;38.790;-77.084;2023-08-20T05:55:33;101633.41;;;20.10;50.79
47809;BME280;33573;38.790;-77.084;2023-08-20T05:57:58;101634.22;;;19.89;50.59
47809;BME280;33573;38.790;-77.084;2023-08-20T06:00:24;101632.72;;;19.96;50.67
47809;BME280;33573;38.790;-77.084;2023-08-20T06:02:50;101631.85;;;20.19;50.83
47809;BME280;33573;38.790;-77.084;2023-08-20T06:05:15;101629.38;;;20.42;50.60
47809;BME280;33573;38.790;-77.084;2023-08-20T06:07:40;101627.07;;;19.80;51.05
47809;BME280;33573;38.790;-77.084;2023-08-20T06:10:06;101625.52;;;20.03;50.89
47809;BME280;33573;38.790;-77.084;2023-08-20T06:12:31;101629.55;;;20.17;50.36
47809;BME280;33573;38.790;-77.084;2023-08-20T06:14:56;101633.07;;;19.76;51.29
47809;BME280;33573;38.790;-77.084;2023-08-20T06:17:21;101629.27;;;19.95;50.87
47809;BME280;33573;38.790;-77.084;2023-08-20T06:19:46;101629.44;;;19.87;51.02
47809;BME280;33573;38.790;-77.084;2023-08-20T06:22:12;101631.96;;;19.78;51.22
47809;BME280;33573;38.790;-77.084;2023-08-20T06:24:38;101633.55;;;19.87;51.03
47809;BME280;33573;38.790;-77.084;2023-08-20T06:27:03;101634.21;;;20.13;51.12
47809;BME280;33573;38.790;-77.084;2023-08-20T06:29:28;101631.16;;;20.01;51.57
47809;BME280;33573;38.790;-77.084;2023-08-20T06:31:54;101635.43;;;19.69;51.15
47809;BME280;33573;38.790;-77.084;2023-08-20T06:34:19;101630.15;;;19.91;51.38
47809;BME280;33573;38.790;-77.084;2023-08-20T06:36:45;101630.94;;;19.62;51.83
47809;BME280;33573;38.790;-77.084;2023-08-20T06:39:10;101630.97;;;19.55;51.97
47809;BME280;33573;38.790;-77.084;2023-08-20T06:41:36;101628.33;;;20.02;51.42
47809;BME280;33573;38.790;-77.084;2023-08-20T06:44:01;101631.42;;;19.75;51.46
47809;BME280;33573;38.790;-77.084;2023-08-20T06:46:27;101630.85;;;19.46;52.17
47809;BME280;33573;38.790;-77.084;2023-08-20T06:48:52;101632.05;;;19.67;51.85
47809;BME280;33573;38.790;-77.084;2023-08-20T06:51:20;101633.91;;;19.68;52.42
47809;BME280;33573;38.790;-77.084;2023-08-20T06:53:43;101634.09;;;19.48;52.41
47809;BME280;33573;38.790;-77.084;2023-08-20T06:56:09;101632.19;;;19.36;52.42
47809;BME280;33573;38.790;-77.084;2023-08-20T06:58:35;101636.54;;;19.41;52.19
47809;BME280;33573;38.790;-77.084;2023-08-20T07:01:00;101636.77;;;19.60;52.18
47809;BME280;33573;38.790;-77.084;2023-08-20T07:03:26;101637.20;;;19.19;52.58
47809;BME280;33573;38.790;-77.084;2023-08-20T07:05:51;101636.17;;;19.49;52.41
47809;BME280;33573;38.790;-77.084;2023-08-20T07:08:17;101640.00;;;19.27;52.89
47809;BME280;33573;38.790;-77.084;2023-08-20T07:10:42;101639.56;;;19.16;53.07
47809;BME280;33573;38.790;-77.084;2023-08-20T07:13:08;101644.91;;;19.22;52.94
47809;BME280;33573;38.790;-77.084;2023-08-20T07:15:33;101645.20;;;19.13;53.35
47809;BME280;33573;38.790;-77.084;2023-08-20T07:17:59;101644.96;;;19.23;52.74
47809;BME280;33573;38.790;-77.084;2023-08-20T07:20:24;101642.94;;;19.23;52.75
47809;BME280;33573;38.790;-77.084;2023-08-20T07:22:49;101644.63;;;19.32;52.71
47809;BME280;33573;38.790;-77.084;2023-08-20T07:25:15;101647.88;;;19.26;53.11
47809;BME280;33573;38.790;-77.084;2023-08-20T07:27:40;101646.53;;;19.18;52.66
47809;BME280;33573;38.790;-77.084;2023-08-20T07:30:06;101644.09;;;19.17;53.05
47809;BME280;33573;38.790;-77.084;2023-08-20T07:32:30;101644.02;;;19.13;53.07
47809;BME280;33573;38.790;-77.084;2023-08-20T07:34:56;101645.64;;;19.08;53.23
47809;BME280;33573;38.790;-77.084;2023-08-20T07:37:22;101649.55;;;19.06;53.31
47809;BME280;33573;38.790;-77.084;2023-08-20T07:39:47;101651.18;;;19.30;53.50
47809;BME280;33573;38.790;-77.084;2023-08-20T07:42:12;101654.99;;;19.13;53.46
47809;BME280;33573;38.790;-77.084;2023-08-20T07:44:38;101658.40;;;19.17;53.57
47809;BME280;33573;38.790;-77.084;2023-08-20T07:47:03;101661.75;;;19.06;54.00
47809;BME280;33573;38.790;-77.084;2023-08-20T07:49:29;101658.98;;;19.11;53.64
47809;BME280;33573;38.790;-77.084;2023-08-20T07:51:55;101660.63;;;19.03;53.53
47809;BME280;33573;38.790;-77.084;2023-08-20T07:54:20;101657.37;;;19.23;53.04
47809;BME280;33573;38.790;-77.084;2023-08-20T07:56:45;101661.55;;;19.02;53.50
47809;BME280;33573;38.790;-77.084;2023-08-20T07:59:11;101666.92;;;19.04;53.19
47809;BME280;33573;38.790;-77.084;2023-08-20T08:01:36;101670.05;;;19.13;53.63
47809;BME280;33573;38.790;-77.084;2023-08-20T08:04:02;101672.73;;;19.02;53.89
47809;BME280;33573;38.790;-77.084;2023-08-20T08:06:27;101675.42;;;18.93;53.79
47809;BME280;33573;38.790;-77.084;2023-08-20T08:08:52;101677.34;;;18.86;53.88
47809;BME280;33573;38.790;-77.084;2023-08-20T08:11:18;101677.31;;;18.80;54.14
47809;BME280;33573;38.790;-77.084;2023-08-20T08:13:44;101677.96;;;19.02;53.70
47809;BME280;33573;38.790;-77.084;2023-08-20T08:16:09;101678.62;;;19.04;53.60
47809;BME280;33573;38.790;-77.084;2023-08-20T08:18:34;101674.87;;;18.76;54.34
47809;BME280;33573;38.790;-77.084;2023-08-20T08:20:59;101679.51;;;19.06;54.19
47809;BME280;33573;38.790;-77.084;2023-08-20T08:23:25;101678.62;;;18.88;54.02
47809;BME280;33573;38.790;-77.084;2023-08-20T08:25:51;101675.34;;;19.10;53.77
47809;BME280;33573;38.790;-77.084;2023-08-20T08:28:16;101675.13;;;18.64;54.25
47809;BME280;33573;38.790;-77.084;2023-08-20T08:30:41;101678.06;;;18.68;54.44
47809;BME280;33573;38.790;-77.084;2023-08-20T08:33:06;101682.26;;;18.80;53.93
47809;BME280;33573;38.790;-77.084;2023-08-20T08:35:32;101685.78;;;18.82;54.10
47809;BME280;33573;38.790;-77.084;2023-08-20T08:37:58;101686.28;;;18.94;53.92
47809;BME280;33573;38.790;-77.084;2023-08-20T08:40:24;101688.70;;;18.91;54.36
47809;BME280;33573;38.790;-77.084;2023-08-20T08:42:49;101688.51;;;18.59;54.55
47809;BME280;33573;38.790;-77.084;2023-08-20T08:45:16;101688.10;;;18.74;54.74
47809;BME280;33573;38.790;-77.084;2023-08-20T08:47:40;101685.47;;;18.81;53.98
47809;BME280;33573;38.790;-77.084;2023-08-20T08:50:06;101690.35;;;18.68;54.62
47809;BME280;33573;38.790;-77.084;2023-08-20T08:52:31;101696.51;;;18.58;54.33
47809;BME280;33573;38.790;-77.084;2023-08-20T08:54:56;101695.99;;;18.60;54.10
47809;BME280;33573;38.790;-77.084;2023-08-20T08:57:21;101696.12;;;18.66;54.60
47809;BME280;33573;38.790;-77.084;2023-08-20T08:59:47;101692.72;;;18.72;54.86
47809;BME280;33573;38.790;-77.084;2023-08-20T09:02:12;101689.06;;;18.58;55.11
47809;BME280;33573;38.790;-77.084;2023-08-20T09:04:38;101689.60;;;18.46;55.35
47809;BME280;33573;38.790;-77.084;2023-08-20T09:07:03;101693.05;;;18.40;55.37
47809;BME280;33573;38.790;-77.084;2023-08-20T09:09:30;101695.96;;;18.40;55.00
47809;BME280;33573;38.790;-77.084;2023-08-20T09:11:54;101702.91;;;18.37;55.13
47809;BME280;33573;38.790;-77.084;2023-08-20T09:14:23;101708.78;;;18.64;54.53
47809;BME280;33573;38.790;-77.084;2023-08-20T09:16:44;101716.73;;;18.46;54.66
47809;BME280;33573;38.790;-77.084;2023-08-20T09:19:10;101720.70;;;18.63;54.57
47809;BME280;33573;38.790;-77.084;2023-08-20T09:21:36;101724.26;;;18.05;54.93
47809;BME280;33573;38.790;-77.084;2023-08-20T09:24:02;101728.59;;;18.73;54.53
47809;BME280;33573;38.790;-77.084;2023-08-20T09:26:26;101727.72;;;18.20;55.36
47809;BME280;33573;38.790;-77.084;2023-08-20T09:28:55;101729.49;;;18.31;55.10
47809;BME280;33573;38.790;-77.084;2023-08-20T09:31:17;101731.16;;;18.49;55.32
47809;BME280;33573;38.790;-77.084;2023-08-20T09:33:50;101733.46;;;18.30;55.18
47809;BME280;33573;38.790;-77.084;2023-08-20T09:36:08;101731.34;;;18.41;54.99
47809;BME280;33573;38.790;-77.084;2023-08-20T09:38:36;101727.96;;;18.18;54.79
47809;BME280;33573;38.790;-77.084;2023-08-20T09:40:58;101723.41;;;17.99;55.75
47809;BME280;33573;38.790;-77.084;2023-08-20T09:43:24;101720.50;;;18.52;55.21
47809;BME280;33573;38.790;-77.084;2023-08-20T09:45:50;101719.95;;;18.34;55.22
47809;BME280;33573;38.790;-77.084;2023-08-20T09:48:18;101720.09;;;18.39;55.40
47809;BME280;33573;38.790;-77.084;2023-08-20T09:50:41;101722.48;;;18.42;55.79
47809;BME280;33573;38.790;-77.084;2023-08-20T09:53:09;101726.06;;;18.62;54.78
47809;BME280;33573;38.790;-77.084;2023-08-20T09:55:33;101725.38;;;18.36;55.39
47809;BME280;33573;38.790;-77.084;2023-08-20T09:57:57;101728.63;;;18.35;54.96
47809;BME280;33573;38.790;-77.084;2023-08-20T10:00:22;101731.19;;;18.53;54.46
47809;BME280;33573;38.790;-77.084;2023-08-20T10:02:47;101735.44;;;18.72;55.21
47809;BME280;33573;38.790;-77.084;2023-08-20T10:05:13;101735.44;;;18.02;55.64
47809;BME280;33573;38.790;-77.084;2023-08-20T10:07:38;101733.89;;;18.56;55.41
47809;BME280;33573;38.790;-77.084;2023-08-20T10:10:05;101738.60;;;18.43;55.18
47809;BME280;33573;38.790;-77.084;2023-08-20T10:12:30;101744.07;;;18.64;54.51
47809;BME280;33573;38.790;-77.084;2023-08-20T10:14:55;101750.33;;;18.43;55.58
47809;BME280;33573;38.790;-77.084;2023-08-20T10:17:21;101757.31;;;18.61;55.13
47809;BME280;33573;38.790;-77.084;2023-08-20T10:19:47;101763.38;;;18.80;54.75
47809;BME280;33573;38.790;-77.084;2023-08-20T10:22:11;101769.85;;;18.82;54.35
47809;BME280;33573;38.790;-77.084;2023-08-20T10:24:44;101767.57;;;18.18;54.77
47809;BME280;33573;38.790;-77.084;2023-08-20T10:27:09;101767.76;;;18.39;55.00
47809;BME280;33573;38.790;-77.084;2023-08-20T10:29:38;101764.37;;;18.61;55.22
47809;BME280;33573;38.790;-77.084;2023-08-20T10:31:54;101770.04;;;18.67;55.32
47809;BME280;33573;38.790;-77.084;2023-08-20T10:34:31;101770.95;;;18.67;55.28
47809;BME280;33573;38.790;-77.084;2023-08-20T10:36:50;101771.99;;;18.21;55.42
47809;BME280;33573;38.790;-77.084;2023-08-20T10:41:36;101776.15;;;18.18;55.51
47809;BME280;33573;38.790;-77.084;2023-08-20T10:44:01;101778.02;;;18.09;55.75
47809;BME280;33573;38.790;-77.084;2023-08-20T10:46:28;101783.50;;;18.28;55.36
47809;BME280;33573;38.790;-77.084;2023-08-20T10:48:52;101786.81;;;18.36;55.23
47809;BME280;33573;38.790;-77.084;2023-08-20T10:51:17;101788.71;;;18.47;54.88
47809;BME280;33573;38.790;-77.084;2023-08-20T10:53:43;101791.71;;;18.31;55.44
47809;BME280;33573;38.790;-77.084;2023-08-20T10:56:09;101795.85;;;18.43;55.30
47809;BME280;33573;38.790;-77.084;2023-08-20T10:58:33;101793.47;;;18.19;55.84
47809;BME280;33573;38.790;-77.084;2023-08-20T11:03:23;101794.59;;;18.49;55.14
47809;BME280;33573;38.790;-77.084;2023-08-20T11:05:48;101792.26;;;18.53;55.15
47809;BME280;33573;38.790;-77.084;2023-08-20T11:08:13;101790.56;;;18.55;55.28
47809;BME280;33573;38.790;-77.084;2023-08-20T11:10:38;101792.92;;;19.10;54.89
47809;BME280;33573;38.790;-77.084;2023-08-20T11:13:04;101797.22;;;18.78;55.23
47809;BME280;33573;38.790;-77.084;2023-08-20T11:15:29;101799.65;;;18.62;55.23
47809;BME280;33573;38.790;-77.084;2023-08-20T11:17:55;101799.36;;;18.65;55.31
47809;BME280;33573;38.790;-77.084;2023-08-20T11:20:20;101801.63;;;18.73;54.89
47809;BME280;33573;38.790;-77.084;2023-08-20T11:22:46;101804.01;;;18.76;55.12
47809;BME280;33573;38.790;-77.084;2023-08-20T11:25:12;101805.15;;;18.65;55.34
47809;BME280;33573;38.790;-77.084;2023-08-20T11:27:41;101805.33;;;18.67;55.10
47809;BME280;33573;38.790;-77.084;2023-08-20T11:30:04;101809.37;;;18.86;54.59
47809;BME280;33573;38.790;-77.084;2023-08-20T11:32:30;101814.32;;;18.76;55.00
47809;BME280;33573;38.790;-77.084;2023-08-20T11:34:54;101818.03;;;19.20;54.86
47809;BME280;33573;38.790;-77.084;2023-08-20T11:37:21;101822.34;;;19.37;54.59
47809;BME280;33573;38.790;-77.084;2023-08-20T11:39:45;101822.84;;;19.48;54.71
47809;BME280;33573;38.790;-77.084;2023-08-20T11:42:10;101823.69;;;19.81;53.99
47809;BME280;33573;38.790;-77.084;2023-08-20T11:44:43;101824.22;;;19.84;53.57
47809;BME280;33573;38.790;-77.084;2023-08-20T11:47:00;101825.31;;;19.90;53.45
47809;BME280;33573;38.790;-77.084;2023-08-20T11:49:29;101827.34;;;19.71;53.28
47809;BME280;33573;38.790;-77.084;2023-08-20T11:51:51;101828.14;;;20.03;52.54
47809;BME280;33573;38.790;-77.084;2023-08-20T11:54:18;101824.15;;;20.25;51.71
47809;BME280;33573;38.790;-77.084;2023-08-20T11:56:45;101828.74;;;20.50;51.62
47809;BME280;33573;38.790;-77.084;2023-08-20T11:59:11;101831.44;;;20.18;51.62
47809;BME280;33573;38.790;-77.084;2023-08-20T12:01:34;101832.28;;;20.21;51.98
47809;BME280;33573;38.790;-77.084;2023-08-20T12:04:02;101832.97;;;20.26;52.27
47809;BME280;33573;38.790;-77.084;2023-08-20T12:06:25;101831.85;;;20.72;51.10
47809;BME280;33573;38.790;-77.084;2023-08-20T12:08:50;101833.47;;;20.93;50.21
47809;BME280;33573;38.790;-77.084;2023-08-20T12:11:16;101837.51;;;20.70;50.91
47809;BME280;33573;38.790;-77.084;2023-08-20T12:13:41;101839.45;;;21.19;48.47
47809;BME280;33573;38.790;-77.084;2023-08-20T12:16:06;101841.09;;;21.13;48.55
47809;BME280;33573;38.790;-77.084;2023-08-20T12:18:32;101845.16;;;21.88;47.31
47809;BME280;33573;38.790;-77.084;2023-08-20T12:20:58;101845.21;;;22.58;46.87
47809;BME280;33573;38.790;-77.084;2023-08-20T12:23:23;101848.95;;;22.36;46.27
47809;BME280;33573;38.790;-77.084;2023-08-20T12:25:50;101845.73;;;22.71;46.70